This is the latest recevied weather packets stored in our database for station/object OSTR-WX. If no packets are shown the sender has not sent any weather packets the latest 10 day(s).
| Time | Temp. | Humidity | Pressure | Rain* | Wind** | Luminosity | Snow |
|---|---|---|---|---|---|---|---|
| 1777917147 | 22.22° C | 41% | 1012.2 hPa | - | - | - | - |
| 1777916198 | 23.33° C | 38% | 1012.1 hPa | - | - | - | - |
| 1777916191 | 23.33° C | 38% | 1012.1 hPa | - | - | - | - |
| 1777915234 | 25.56° C | 34% | 1011.6 hPa | - | - | - | - |
| 1777913319 | 25.56° C | 32% | 1011.6 hPa | - | - | - | - |
| 1777912363 | 27.22° C | 31% | 1011.5 hPa | - | - | - | - |
| 1777911413 | 27.22° C | 32% | 1011.5 hPa | - | - | - | - |
| 1777911406 | 27.22° C | 32% | 1011.5 hPa | - | - | - | - |
| 1777908536 | 27.78° C | 34% | 1011.7 hPa | - | - | - | - |
| 1777907578 | 28.33° C | 34% | 1011.6 hPa | - | - | - | - |
| 1777906622 | 27.78° C | 35% | 1011.8 hPa | - | - | - | - |
| 1777904708 | 26.11° C | 35% | 1012.3 hPa | - | - | - | - |
| 1777903757 | 27.22° C | 33% | 1012.3 hPa | - | - | - | - |
| 1777903751 | 27.22° C | 33% | 1012.3 hPa | - | - | - | - |
| 1777902794 | 26.67° C | 32% | 1012.5 hPa | - | - | - | - |
| 1777901843 | 27.22° C | 33% | 1012.5 hPa | - | - | - | - |
| 1777901837 | 27.22° C | 33% | 1012.5 hPa | - | - | - | - |
| 1777900880 | 27.78° C | 31% | 1012.7 hPa | - | - | - | - |
| 1777898015 | 27.22° C | 32% | 1013.1 hPa | - | - | - | - |
| 1777898008 | 27.22° C | 32% | 1013.1 hPa | - | - | - | - |
| 1777897051 | 27.22° C | 32% | 1013.2 hPa | - | - | - | - |
| 1777896095 | 27.22° C | 35% | 1013.4 hPa | - | - | - | - |
| 1777895138 | 27.22° C | 34% | 1013.6 hPa | - | - | - | - |
| 1777894181 | 27.22° C | 32% | 1013.7 hPa | - | - | - | - |
| 1777893223 | 26.67° C | 36% | 1014 hPa | - | - | - | - |
* Rain since midnight (hover to see other rain measurements)
** Current wind speed in m/s (hover to see current wind gust speed)